createdAt,value
2023-01-10T07:03:13.771Z,85.80
2023-01-10T07:17:36.140Z,25.70
2023-01-10T07:20:04.442Z,21.10
2023-01-10T07:22:32.530Z,19.80
2023-01-10T07:25:01.179Z,19.20
2023-01-10T07:27:32.052Z,22.40
2023-01-10T07:30:00.992Z,19.20
2023-01-10T07:32:29.352Z,23.60
2023-01-10T07:34:57.507Z,26.20
2023-01-10T07:37:28.164Z,26.00
2023-01-10T07:39:58.295Z,29.30
2023-01-10T07:42:27.219Z,31.80
2023-01-10T07:44:55.308Z,31.70
2023-01-10T07:47:23.642Z,36.80
2023-01-10T07:49:51.814Z,37.50
2023-01-10T07:52:20.629Z,23.20
2023-01-10T07:54:50.102Z,22.80
2023-01-10T07:57:19.858Z,26.40
2023-01-10T07:59:47.858Z,23.70
2023-01-10T08:02:16.578Z,35.30
2023-01-10T08:04:44.947Z,25.70
2023-01-10T08:07:13.114Z,26.60
2023-01-10T08:09:41.246Z,24.30
2023-01-10T08:12:09.454Z,24.90
2023-01-10T08:14:39.716Z,22.20
2023-01-10T08:17:08.738Z,21.40
2023-01-10T08:19:36.827Z,21.10
2023-01-10T08:22:06.939Z,22.40
2023-01-10T08:24:40.441Z,30.30
2023-01-10T08:27:08.633Z,22.70
2023-01-10T08:29:38.428Z,26.00
2023-01-10T08:32:06.656Z,29.90
2023-01-10T08:34:35.112Z,22.10
2023-01-10T08:37:04.013Z,34.80
2023-01-10T08:39:32.851Z,30.10
2023-01-10T08:42:01.338Z,33.20
2023-01-10T08:44:29.891Z,28.30
2023-01-10T08:46:58.830Z,24.80
2023-01-10T08:49:27.413Z,27.10
2023-01-10T08:51:55.778Z,26.90
2023-01-10T08:54:24.063Z,44.00
2023-01-10T08:56:52.173Z,33.50
2023-01-10T08:59:20.696Z,34.10
2023-01-10T09:01:49.196Z,28.10
2023-01-10T09:04:17.400Z,27.40
2023-01-10T09:06:46.184Z,27.40
2023-01-10T09:09:14.908Z,33.50
2023-01-10T09:11:43.648Z,25.00
2023-01-10T09:14:13.018Z,23.60
2023-01-10T09:16:44.128Z,58.20
2023-01-10T09:19:14.614Z,27.60
2023-01-10T09:21:42.726Z,24.90
2023-01-10T09:24:11.598Z,24.40
2023-01-10T09:26:40.154Z,30.50
2023-01-10T09:29:09.293Z,35.50
2023-01-10T09:31:37.943Z,41.60
2023-01-10T09:34:06.257Z,39.00
2023-01-10T09:36:34.532Z,33.90
2023-01-10T09:39:04.643Z,35.60
2023-01-10T09:41:53.754Z,36.50
2023-01-10T09:44:39.829Z,31.20
2023-01-10T09:47:38.651Z,31.70
2023-01-10T09:50:17.763Z,41.70
2023-01-10T09:53:16.769Z,43.50
2023-01-10T09:55:49.314Z,38.50
2023-01-10T09:58:20.429Z,26.90
2023-01-10T10:00:55.687Z,32.50
2023-01-10T10:03:52.113Z,33.30
2023-01-10T10:06:24.211Z,30.60
2023-01-10T10:08:53.581Z,34.80
2023-01-10T10:11:43.561Z,30.20
2023-01-10T10:14:33.163Z,39.70
2023-01-10T10:17:20.058Z,39.80
2023-01-10T10:20:28.603Z,35.80
2023-01-10T10:23:35.621Z,37.00
2023-01-10T10:26:25.256Z,39.90
2023-01-10T10:29:30.906Z,35.10
2023-01-10T10:32:08.756Z,34.50
2023-01-10T10:35:03.160Z,31.20
2023-01-10T10:37:43.350Z,32.20
2023-01-10T10:40:14.680Z,31.30
2023-01-10T10:42:48.527Z,26.00
2023-01-10T10:45:42.931Z,28.80
2023-01-10T10:48:22.956Z,25.60
2023-01-10T10:51:15.824Z,25.80
2023-01-10T10:53:44.724Z,28.60
2023-01-10T10:56:41.772Z,31.70
2023-01-10T10:59:22.151Z,29.40
2023-01-10T11:01:52.303Z,38.70
2023-01-10T11:04:24.441Z,39.30
2023-01-10T11:06:53.550Z,44.40
2023-01-10T11:09:34.911Z,44.80
2023-01-10T11:12:03.898Z,37.70
2023-01-10T11:14:43.169Z,37.10
2023-01-10T11:17:41.517Z,36.70
2023-01-10T11:20:17.798Z,38.20
2023-01-10T11:22:55.000Z,35.40
2023-01-10T11:25:23.797Z,29.50
2023-01-10T11:28:01.107Z,33.40
2023-01-10T11:30:32.285Z,30.80
2023-01-10T11:33:04.747Z,31.60
2023-01-10T11:35:37.184Z,35.10
2023-01-10T11:38:18.683Z,37.40
2023-01-10T11:40:56.465Z,27.60
2023-01-10T11:43:37.472Z,39.70
2023-01-10T11:46:13.977Z,30.70
2023-01-10T11:49:08.053Z,33.50
2023-01-10T11:51:47.528Z,33.40
2023-01-10T11:54:21.476Z,28.30
2023-01-10T11:57:05.639Z,37.20
2023-01-10T11:59:34.169Z,32.50
2023-01-10T12:02:27.930Z,31.50
2023-01-10T12:04:59.749Z,31.00
2023-01-10T12:07:29.281Z,28.10
2023-01-10T12:10:00.733Z,26.80
2023-01-10T12:12:37.455Z,33.60
2023-01-10T12:15:27.756Z,27.90
2023-01-10T12:18:03.044Z,44.90
2023-01-10T12:20:35.891Z,34.20
2023-01-10T12:23:08.642Z,32.30
2023-01-10T12:25:44.617Z,31.50
2023-01-10T12:28:27.325Z,35.20
2023-01-10T12:30:58.268Z,39.60
2023-01-10T12:33:36.980Z,29.00
2023-01-10T12:36:13.710Z,33.00
2023-01-10T12:39:05.937Z,33.90
2023-01-10T12:42:09.064Z,30.20
2023-01-10T12:44:43.490Z,33.20
2023-01-10T12:47:30.664Z,31.00
2023-01-10T12:50:19.619Z,33.50
2023-01-10T12:52:49.343Z,34.70
2023-01-10T12:55:19.943Z,34.00
2023-01-10T12:57:54.328Z,33.80
2023-01-10T13:00:24.968Z,27.80
2023-01-10T13:02:56.376Z,25.40
2023-01-10T13:05:30.157Z,25.70
2023-01-10T13:08:07.177Z,29.40
2023-01-10T13:10:40.072Z,30.00
2023-01-10T13:13:34.671Z,28.20
2023-01-10T13:16:40.098Z,29.50
2023-01-10T13:19:11.287Z,35.00
2023-01-10T13:21:41.115Z,35.30
2023-01-10T13:24:15.943Z,29.40
2023-01-10T13:26:46.996Z,28.80
2023-01-10T13:29:21.684Z,34.10
2023-01-10T13:31:57.824Z,32.90
2023-01-10T13:34:33.567Z,28.20
2023-01-10T13:37:11.878Z,26.20
2023-01-10T13:39:56.591Z,30.90
2023-01-10T13:42:49.766Z,27.80
2023-01-10T13:45:20.765Z,26.10
2023-01-10T13:47:55.807Z,30.20
2023-01-10T13:50:33.882Z,26.40
2023-01-10T13:53:05.930Z,27.50
2023-01-10T13:55:56.257Z,31.20
2023-01-10T13:58:44.167Z,31.70
2023-01-10T14:01:54.656Z,32.90
2023-01-10T14:04:26.225Z,33.40
2023-01-10T14:07:05.943Z,32.80
2023-01-10T14:09:47.120Z,32.20
2023-01-10T14:12:45.424Z,29.00
2023-01-10T14:15:34.344Z,31.90
2023-01-10T14:18:19.281Z,30.70
2023-01-10T14:21:03.460Z,33.70
2023-01-10T14:23:36.619Z,34.10
2023-01-10T14:26:05.639Z,36.20
2023-01-10T14:28:35.960Z,35.90
2023-01-10T14:31:18.971Z,34.20
2023-01-10T14:33:50.053Z,34.30
2023-01-10T14:37:01.792Z,35.10
2023-01-10T14:39:32.438Z,36.60
2023-01-10T14:42:09.090Z,36.50
2023-01-10T14:44:49.931Z,34.40
2023-01-10T14:47:31.724Z,37.60
2023-01-10T14:50:04.137Z,41.00
2023-01-10T14:52:35.227Z,40.60
2023-01-10T14:55:20.742Z,40.70
2023-01-10T14:58:00.482Z,35.80
2023-01-10T15:00:31.371Z,33.10
2023-01-10T15:03:03.289Z,36.10
2023-01-10T15:05:37.644Z,32.40
2023-01-10T15:08:28.124Z,34.80
2023-01-10T15:11:07.034Z,35.50
2023-01-10T15:13:52.021Z,44.90
2023-01-10T15:16:23.569Z,32.00
2023-01-10T15:18:53.436Z,31.10
2023-01-10T15:21:22.343Z,29.90
2023-01-10T15:23:50.897Z,30.40
2023-01-10T15:26:30.996Z,34.80
2023-01-10T15:29:14.718Z,36.30
2023-01-10T15:31:44.794Z,33.00
2023-01-10T15:34:26.712Z,35.70
2023-01-10T15:36:57.553Z,35.40
2023-01-10T15:39:36.360Z,36.30
2023-01-10T15:42:09.799Z,40.70
2023-01-10T15:44:45.165Z,39.00
2023-01-10T15:47:42.909Z,32.60
2023-01-10T15:50:27.208Z,40.00
2023-01-10T15:53:02.088Z,38.50
2023-01-10T15:55:53.884Z,35.90
2023-01-10T15:58:30.266Z,39.70
2023-01-10T16:01:00.208Z,39.20
2023-01-10T16:03:38.275Z,36.10
2023-01-10T16:06:12.639Z,36.60
2023-01-10T16:11:42.847Z,28.60
2023-01-10T16:14:11.065Z,39.00
2023-01-10T16:16:42.403Z,34.50
2023-01-10T16:19:11.863Z,38.00
2023-01-10T16:21:52.269Z,32.90
2023-01-10T16:24:23.568Z,34.20
2023-01-10T16:26:52.430Z,33.20
2023-01-10T16:29:20.834Z,32.50
2023-01-10T16:31:52.379Z,31.80
2023-01-10T16:34:20.934Z,29.70
2023-01-10T16:36:49.200Z,29.10
2023-01-10T16:39:22.839Z,29.60
2023-01-10T16:42:17.534Z,30.90
2023-01-10T16:44:46.523Z,26.90
2023-01-10T16:47:16.189Z,31.70
2023-01-10T16:49:47.054Z,32.60
2023-01-10T16:52:16.338Z,31.30
2023-01-10T16:54:44.424Z,29.40
2023-01-10T16:57:14.150Z,33.30
2023-01-10T16:59:42.296Z,32.10
2023-01-10T17:02:18.935Z,28.70
2023-01-10T17:04:48.976Z,27.20
2023-01-10T17:07:17.840Z,30.20
2023-01-10T17:09:46.096Z,28.30
2023-01-10T17:12:19.449Z,30.10
2023-01-10T17:14:48.386Z,32.10
2023-01-10T17:17:17.727Z,27.00
2023-01-10T17:19:47.978Z,24.90
2023-01-10T17:22:16.929Z,25.40
2023-01-10T17:24:45.016Z,26.90
2023-01-10T17:27:14.687Z,29.70
2023-01-10T17:29:43.064Z,31.90
2023-01-10T17:32:12.973Z,27.30
2023-01-10T17:34:41.095Z,26.90
2023-01-10T17:37:09.731Z,26.40
2023-01-10T17:39:39.493Z,30.30
2023-01-10T17:42:07.702Z,25.70
2023-01-10T17:44:35.863Z,27.20
2023-01-10T17:47:05.546Z,24.70
2023-01-10T17:49:36.515Z,26.40
2023-01-10T17:52:04.823Z,24.50
2023-01-10T17:54:35.153Z,27.60
2023-01-10T17:57:05.226Z,22.30
2023-01-10T17:59:33.887Z,22.90
2023-01-10T18:02:02.523Z,25.50
2023-01-10T18:04:30.829Z,22.50
2023-01-10T18:06:58.957Z,24.80
2023-01-10T18:09:27.264Z,22.20
2023-01-10T18:11:55.412Z,23.20
2023-01-10T18:14:39.040Z,27.20
2023-01-10T18:17:10.353Z,22.00
2023-01-10T18:19:39.153Z,22.80
2023-01-10T18:22:27.947Z,19.20
2023-01-10T18:24:57.826Z,23.10
2023-01-10T18:27:27.049Z,26.90
2023-01-10T18:29:55.218Z,20.10
2023-01-10T18:32:25.792Z,19.20
2023-01-10T18:34:53.839Z,18.50
2023-01-10T18:37:21.850Z,20.70
2023-01-10T18:39:49.975Z,21.40
2023-01-10T18:42:18.174Z,22.80
2023-01-10T18:44:46.214Z,20.50
2023-01-10T18:47:14.341Z,19.30
2023-01-10T18:49:42.371Z,21.40
2023-01-10T18:52:11.118Z,19.00
2023-01-10T18:54:39.463Z,22.30
2023-01-10T18:57:07.611Z,20.30
2023-01-10T18:59:38.306Z,21.90
2023-01-10T19:02:10.303Z,16.40
2023-01-10T19:04:38.380Z,17.50
2023-01-10T19:07:07.852Z,19.10
2023-01-10T19:09:37.218Z,18.80
2023-01-10T19:12:06.307Z,18.70
2023-01-10T19:14:34.439Z,20.40
2023-01-10T19:17:03.796Z,18.10
2023-01-10T19:19:31.947Z,18.00
2023-01-10T19:21:59.987Z,16.50
2023-01-10T19:24:31.295Z,18.30
2023-01-10T19:27:01.800Z,19.50
2023-01-10T19:29:30.841Z,18.60
2023-01-10T19:32:00.701Z,18.70
2023-01-10T19:34:28.853Z,22.70
2023-01-10T19:36:56.999Z,19.80
2023-01-10T19:39:24.979Z,17.40
2023-01-10T19:41:53.050Z,21.50
2023-01-10T19:44:21.493Z,18.60
2023-01-10T19:46:50.365Z,21.20
2023-01-10T19:49:19.749Z,16.60
2023-01-10T19:51:51.356Z,17.70
2023-01-10T19:54:19.888Z,18.30
2023-01-10T19:56:48.083Z,22.00
2023-01-10T19:59:18.350Z,20.70
2023-01-10T20:01:47.758Z,20.40
2023-01-10T20:04:15.932Z,19.00
2023-01-10T20:06:44.140Z,18.00
2023-01-10T20:09:12.699Z,15.90
2023-01-10T20:11:43.520Z,20.00
2023-01-10T20:14:13.772Z,17.50
2023-01-10T20:16:42.993Z,19.30
2023-01-10T20:19:12.298Z,16.40
2023-01-10T20:21:42.126Z,17.10
2023-01-10T20:24:17.042Z,17.10
2023-01-10T20:26:46.908Z,16.60
2023-01-10T20:29:16.007Z,16.60
2023-01-10T20:31:49.724Z,17.20
2023-01-10T20:34:18.099Z,16.40
2023-01-10T20:36:47.490Z,17.30
2023-01-10T20:39:16.896Z,15.40
2023-01-10T20:41:45.000Z,19.10
2023-01-10T20:44:13.160Z,13.30
2023-01-10T20:46:41.271Z,16.10
2023-01-10T20:49:10.677Z,17.40
2023-01-10T20:51:39.070Z,15.70
2023-01-10T20:54:08.580Z,17.60
2023-01-10T20:56:39.137Z,15.70
2023-01-10T20:59:07.396Z,16.30
2023-01-10T21:01:36.071Z,16.10
2023-01-10T21:04:07.288Z,16.10
2023-01-10T21:06:36.245Z,16.80
2023-01-10T21:09:05.655Z,16.10
2023-01-10T21:11:44.398Z,16.70
2023-01-10T21:14:20.207Z,14.90
2023-01-10T21:16:50.529Z,12.80
2023-01-10T21:19:19.684Z,16.80
2023-01-10T21:21:47.933Z,16.40
2023-01-10T21:24:16.041Z,15.70
2023-01-10T21:26:43.966Z,15.50
2023-01-10T21:29:13.168Z,15.90
2023-01-10T21:31:41.628Z,14.50
2023-01-10T21:34:09.881Z,14.90
2023-01-10T21:36:38.317Z,14.60
2023-01-10T21:39:06.346Z,15.30
2023-01-10T21:41:53.106Z,16.50
2023-01-10T21:44:21.063Z,14.50
2023-01-10T21:46:51.345Z,14.30
2023-01-10T21:49:21.361Z,14.20
2023-01-10T21:51:49.589Z,12.60
2023-01-10T21:54:17.626Z,11.60
2023-01-10T21:56:45.739Z,14.10
2023-01-10T21:59:13.864Z,10.80
2023-01-10T22:01:42.244Z,12.60
2023-01-10T22:04:10.567Z,12.50
2023-01-10T22:06:38.722Z,11.10
2023-01-10T22:09:06.784Z,10.70
2023-01-10T22:11:34.772Z,12.50
2023-01-10T22:14:02.982Z,10.90
2023-01-10T22:16:31.020Z,12.40
2023-01-10T22:18:59.223Z,13.10
2023-01-10T22:21:27.235Z,13.50
2023-01-10T22:23:55.344Z,14.10
2023-01-10T22:26:23.402Z,13.50
2023-01-10T22:28:51.406Z,13.70
2023-01-10T22:31:19.463Z,12.60
2023-01-10T22:33:47.629Z,11.40
2023-01-10T22:36:19.889Z,11.60
2023-01-10T22:38:48.912Z,12.70
2023-01-10T22:41:21.267Z,12.20
2023-01-10T22:43:49.324Z,14.20
2023-01-10T22:46:17.411Z,13.80
2023-01-10T22:48:45.779Z,13.90
2023-01-10T22:51:16.101Z,13.40
2023-01-10T22:53:53.219Z,13.30
2023-01-10T22:56:21.554Z,14.20
2023-01-10T22:58:49.656Z,13.50
2023-01-10T23:01:21.474Z,14.50
2023-01-10T23:03:49.782Z,14.30
2023-01-10T23:06:18.844Z,13.20
2023-01-10T23:08:47.768Z,14.20
2023-01-10T23:11:17.729Z,13.60
2023-01-10T23:13:47.019Z,12.60
2023-01-10T23:16:28.742Z,14.30
2023-01-10T23:18:57.945Z,14.50
2023-01-10T23:21:29.312Z,12.30
2023-01-10T23:23:57.395Z,15.30
2023-01-10T23:26:25.347Z,15.40
2023-01-10T23:28:53.323Z,13.10
2023-01-10T23:31:24.093Z,14.40
2023-01-10T23:33:52.312Z,15.80
2023-01-10T23:36:20.444Z,14.40
2023-01-10T23:38:48.522Z,14.40
2023-01-10T23:41:16.632Z,12.50
2023-01-10T23:43:44.578Z,12.60
2023-01-10T23:46:12.484Z,13.80
2023-01-10T23:48:40.851Z,14.00
2023-01-10T23:51:11.501Z,14.70
2023-01-10T23:53:40.290Z,13.80
2023-01-10T23:56:14.808Z,13.60
2023-01-10T23:58:43.115Z,15.40
